CST,Max TemperatureF,Mean TemperatureF,Min TemperatureF,Max Dew PointF,MeanDew PointF,Min DewpointF,Max Humidity, Mean Humidity, Min Humidity, Max Sea Level PressureIn, Mean Sea Level PressureIn, Min Sea Level PressureIn, Max VisibilityMiles, Mean VisibilityMiles, Min VisibilityMiles, Max Wind SpeedMPH, Mean Wind SpeedMPH, Max Gust SpeedMPH,PrecipitationIn, CloudCover, Events, WindDirDegrees
2011-11-1,53,46,39,46,39,34,87,74,54,30.12,30.06,29.97,10,10,10,21,9,33,0.00,4,,181
2011-11-2,51,46,42,46,43,37,93,89,81,30.15,30.06,29.99,10,8,4,22,6,30,0.38,8,Thunderstorm,10
2011-11-3,46,39,32,39,33,28,93,74,57,30.26,30.21,30.15,10,10,10,14,9,18,0.00,0,,14
2011-11-4,48,39,30,37,33,28,93,79,50,30.38,30.31,30.26,10,10,2,9,2,,0.00,0,,178
2011-11-5,48,44,41,39,38,34,87,73,62,30.27,30.17,30.03,10,10,10,20,11,25,0.00,1,,167
2011-11-6,53,50,46,48,44,36,87,77,58,30.03,29.93,29.84,10,10,7,20,14,28,0.00,1,,180
2011-11-7,55,47,39,34,26,19,70,47,25,30.24,30.15,30.04,10,10,10,18,11,26,0.00,0,,235
2011-11-8,44,42,39,41,37,28,93,82,53,30.24,30.16,30.07,10,10,5,13,6,17,0.28,8,,43
2011-11-9,41,37,33,39,35,30,93,89,75,30.06,29.74,29.47,10,7,2,31,16,41,0.80,8,,353
2011-11-10,39,36,32,34,29,25,81,74,60,29.91,29.84,29.76,10,10,5,16,12,23,0.00,7,,286
2011-11-11,39,36,33,28,24,19,81,63,52,29.91,29.81,29.64,10,10,10,15,10,18,0.00,5,,232
2011-11-12,53,43,33,43,36,28,87,75,51,29.70,29.63,29.47,10,10,10,16,8,22,0.00,1,,191
2011-11-13,51,48,46,48,45,37,94,87,71,29.48,29.36,29.24,10,9,2,16,12,22,0.13,3,,201
2011-11-14,53,45,37,37,35,32,81,70,50,29.66,29.55,29.49,10,10,7,17,11,24,0.00,2,,213
2011-11-15,51,43,35,41,31,21,75,62,45,29.76,29.68,29.62,10,10,10,18,8,26,0.00,2,,220
2011-11-16,39,36,32,21,18,12,64,51,36,30.01,29.91,29.77,10,10,10,20,15,28,0.00,4,,265
2011-11-17,33,30,26,18,13,9,60,51,41,30.11,30.03,29.97,10,10,10,18,13,25,0.00,5,,276
2011-11-18,44,35,26,23,20,14,64,50,39,30.12,29.88,29.76,10,10,10,23,10,30,0.00,3,,193
2011-11-19,42,38,35,37,29,21,93,64,45,29.85,29.76,29.70,10,9,2,20,10,26,0.02,7,,220
2011-11-20,32,30,28,25,21,18,75,68,60,30.37,30.24,29.91,10,10,10,22,13,33,0.02,8,,340
2011-11-21,33,30,26,27,24,19,93,79,69,30.39,30.34,30.28,10,10,10,7,2,,0.00,5,,303
2011-11-22,39,34,30,34,30,27,93,83,75,30.31,30.14,30.01,10,10,10,9,5,,0.00,4,,57
2011-11-23,37,34,30,36,31,27,100,86,75,30.14,30.09,30.03,10,7,3,15,6,21,0.00,5,,255
2011-11-24,44,40,35,39,36,34,100,88,81,30.08,30.00,29.85,7,4,2,18,12,23,0.00,5,,212
2011-11-25,51,48,46,43,42,39,87,77,67,29.89,29.82,29.79,10,10,5,15,11,22,0.00,3,,202
2011-11-26,50,48,46,48,45,43,100,91,82,29.87,29.80,29.74,10,7,2,15,8,21,0.19,8,,193
2011-11-27,37,34,30,34,25,21,87,70,60,30.15,29.99,29.80,10,10,10,22,15,26,0.01,8,,333
2011-11-28,32,30,28,27,23,21,86,76,69,30.17,30.12,30.03,10,10,8,9,5,,0.00,6,,242
2011-11-29,37,34,30,30,26,19,81,71,60,30.13,30.07,29.97,10,10,10,25,18,36,0.00,5,,2
2011-11-30,39,32,24,23,19,16,80,58,42,30.07,29.98,29.94,10,10,10,15,10,23,0.00,3,,265